Atlantic - Newfoundland: Past 24 Hour Conditions

 

J.A. Douglas McCurdy Sydney Airport

11:00 AM ADT 21 September 2014
This table is a summary of hourly weather conditions for the past 24 hours.
Date / Time
(ADT)
Wind(knots) Conditions Visibility(km) Pressure(kPa) Air tempC) Relative humidity(%) Dew pointC)
21 September 2014
11:00 SW 19 gust 26 Partly Cloudy 24 101.9 20 61 13
10:00 SW 13 gust 22 Partly Cloudy 24 101.9 19 65 13
9:00 SW 11 gust 17 Partly Cloudy 24 102.0 17 74 12
8:00 SSW 11 gust 17 Partly Cloudy 24 102.0 15 83 12
7:00 SW 13 gust 20 Mostly Cloudy 24 102.0 14 83 11
6:00 SW 12 gust 20 Mainly Clear 24 101.9 14 82 11
5:00 SW 12 gust 22 Partly Cloudy 24 101.9 14 80 11
4:00 SW 14 gust 19 Partly Cloudy 24 102.0 15 79 11
3:00 SW 13 gust 20 Partly Cloudy 24 102.0 15 80 11
2:00 SW 12 gust 21 Partly Cloudy 24 102.0 14 82 11
1:00 SW 15 gust 24 Mostly Cloudy 24 102.0 15 78 11
0:00 WSW 21 gust 28 Partly Cloudy 24 102.1 15 75 10
20 September 2014
23:00 SW 16 gust 25 Cloudy 24 102.0 15 72 10
22:00 SW 15 gust 23 Cloudy 24 102.1 14 70 9
21:00 SW 17 gust 26 Cloudy 24 102.2 14 69 9
20:00 SW 14 gust 25 Mostly Cloudy 24 102.2 14 72 9
19:00 SW 15 gust 24 Mostly Cloudy 24 102.2 14 69 9
18:00 SW 16 gust 31 Mostly Cloudy 24 102.2 14 61 7
17:00 SW 18 gust 29 Mostly Cloudy 24 102.3 15 57 6
16:00 SW 22 gust 35 Mostly Cloudy 24 102.3 14 55 6
15:00 SSW 19 gust 28 Mostly Cloudy 24 102.3 14 53 5
14:00 SW 17 gust 25 Mostly Cloudy 24 102.4 14 52 5
13:00 SW 21 gust 28 Mostly Cloudy 24 102.5 14 46 3
12:00 WSW 19 gust 26 Mostly Cloudy 24 102.6 12 40 -1
11:00 SW 12 gust 21 Mostly Cloudy 24 102.6 13 51 3
 
Map of Atlantic - Newfoundland marine weather areas Southwestern Grand Banks - 44138 Banquereau - 44139 Tail of the Bank - 44140 Nickerson Bank - 44251 Northeast Burgeo Bank - 44255 Blanc-Sablon Airport Cap Whittle Chevery Natashquan Airport Heath Point Miscou Island Grand Étang Ingonish Beach North Mountain St.Paul Island J.A. Douglas McCurdy Sydney Airport Charlottetown Airport East Point North Cape Argentia Bonavista Burgeo Cape Race Corner Brook Daniel's Harbour Englee Ferolle Point La Scie Port aux Basques Rocky Harbour Sagona Island St. Anthony Airport St. John's Int'l Airport St. Lawrence Stephenville Airport Twillingate Winterland Wreckhouse Cartwright Airport Mary's Harbour Grates Cove Pool's Island Marticot Island Long Pond Îles de la Madeleine Airport
Legend: buoyBuoy land stationLand Station